Weather at St Landry Parish Ahart Field

Public forecast

Using degrees Fahrenheit for public forecast. Weather courtesy of forecast.io.

Current aviation weather report (METAR) for St Landry Parish Ahart Field

2024/07/20 02:50 (retrieved 25 minutes ago)

KOPL 200250Z AUTO 00000KT 10SM CLR 24/23 A2999 RMK AO2 LTG DSNT SW T02370228

Closest aviation forecast (TAF) to St Landry Parish Ahart Field

Forecast is more than 12 hours old.

Closest forecast is New Orleans NAS JRB/Alvin Callender Field, 115.8 nm (214.5 km) ESE.

2024/07/19 13:18 Ammendment (retrieved 14 hours ago)

TAF AMD KNBG 1913/2007 08005KT 9999 VCSH SCT025CB BKN070 BKN250 QNH2992INS TEMPO 1915/1920 VRB25G35KT 3200 TSRA BR FEW005 BKN010CB OVC040 BECMG 1920/1922 19005KT 8000 SHRA BR FEW020 SCT025CB BKN030 QNH2989INS BECMG 2001/2003 23006KT 9999 NSW SCT025 BKN090 BKN250 QNH2985INS TX31/1919Z TN24/2011Z AMD 1311 FN20040